sensor_id;sensor_type;location;lat;lon;timestamp;pressure;altitude;pressure_sealevel;temperature;humidity
79729;BME280;69218;52.132;5.418;2023-12-20T00:01:07;101689.22;;;5.82;100.00
79729;BME280;69218;52.132;5.418;2023-12-20T00:03:33;101688.38;;;5.82;100.00
79729;BME280;69218;52.132;5.418;2023-12-20T00:06:08;101680.66;;;5.80;100.00
79729;BME280;69218;52.132;5.418;2023-12-20T00:08:35;101677.28;;;5.78;100.00
79729;BME280;69218;52.132;5.418;2023-12-20T00:11:02;101679.16;;;5.74;100.00
79729;BME280;69218;52.132;5.418;2023-12-20T00:13:28;101676.72;;;5.71;100.00
79729;BME280;69218;52.132;5.418;2023-12-20T00:15:55;101682.88;;;5.69;100.00
79729;BME280;69218;52.132;5.418;2023-12-20T00:18:21;101669.97;;;5.67;100.00
79729;BME280;69218;52.132;5.418;2023-12-20T00:20:48;101675.25;;;5.66;100.00
79729;BME280;69218;52.132;5.418;2023-12-20T00:23:14;101668.47;;;5.62;100.00
79729;BME280;69218;52.132;5.418;2023-12-20T00:25:41;101675.50;;;5.60;100.00
79729;BME280;69218;52.132;5.418;2023-12-20T00:28:07;101670.50;;;5.55;100.00
79729;BME280;69218;52.132;5.418;2023-12-20T00:30:34;101664.47;;;5.55;100.00
79729;BME280;69218;52.132;5.418;2023-12-20T00:33:01;101668.97;;;5.51;100.00
79729;BME280;69218;52.132;5.418;2023-12-20T00:35:27;101676.06;;;5.47;100.00
79729;BME280;69218;52.132;5.418;2023-12-20T00:37:54;101681.47;;;5.43;100.00
79729;BME280;69218;52.132;5.418;2023-12-20T00:40:20;101678.16;;;5.39;100.00
79729;BME280;69218;52.132;5.418;2023-12-20T00:42:47;101677.41;;;5.37;100.00
79729;BME280;69218;52.132;5.418;2023-12-20T00:45:14;101683.56;;;5.35;100.00
79729;BME280;69218;52.132;5.418;2023-12-20T00:47:41;101671.63;;;5.31;100.00
79729;BME280;69218;52.132;5.418;2023-12-20T00:50:09;101672.53;;;5.30;100.00
79729;BME280;69218;52.132;5.418;2023-12-20T00:52:36;101670.84;;;5.29;100.00
79729;BME280;69218;52.132;5.418;2023-12-20T00:55:04;101668.38;;;5.26;100.00
79729;BME280;69218;52.132;5.418;2023-12-20T00:57:30;101669.28;;;5.24;100.00
79729;BME280;69218;52.132;5.418;2023-12-20T00:59:57;101679.88;;;5.20;100.00
79729;BME280;69218;52.132;5.418;2023-12-20T01:02:24;101680.03;;;5.17;100.00
79729;BME280;69218;52.132;5.418;2023-12-20T01:04:51;101673.25;;;5.13;100.00
79729;BME280;69218;52.132;5.418;2023-12-20T01:07:17;101672.56;;;5.09;100.00
79729;BME280;69218;52.132;5.418;2023-12-20T01:09:44;101671.75;;;5.07;100.00
79729;BME280;69218;52.132;5.418;2023-12-20T01:12:10;101661.44;;;5.06;100.00
79729;BME280;69218;52.132;5.418;2023-12-20T01:14:37;101656.25;;;5.06;100.00
79729;BME280;69218;52.132;5.418;2023-12-20T01:17:03;101662.34;;;5.05;100.00
79729;BME280;69218;52.132;5.418;2023-12-20T01:19:30;101656.38;;;5.03;100.00
79729;BME280;69218;52.132;5.418;2023-12-20T01:21:57;101660.81;;;5.01;100.00
79729;BME280;69218;52.132;5.418;2023-12-20T01:24:23;101662.63;;;4.99;100.00
79729;BME280;69218;52.132;5.418;2023-12-20T01:26:50;101673.94;;;4.97;100.00
79729;BME280;69218;52.132;5.418;2023-12-20T01:29:16;101685.16;;;4.98;100.00
79729;BME280;69218;52.132;5.418;2023-12-20T01:31:43;101684.13;;;5.02;100.00
79729;BME280;69218;52.132;5.418;2023-12-20T01:34:09;101683.16;;;5.05;100.00
79729;BME280;69218;52.132;5.418;2023-12-20T01:36:36;101678.03;;;5.03;100.00
79729;BME280;69218;52.132;5.418;2023-12-20T01:39:03;101682.13;;;5.09;100.00
79729;BME280;69218;52.132;5.418;2023-12-20T01:41:35;101676.84;;;5.10;100.00
79729;BME280;69218;52.132;5.418;2023-12-20T01:44:02;101678.47;;;5.13;100.00
79729;BME280;69218;52.132;5.418;2023-12-20T01:46:28;101671.47;;;5.15;100.00
79729;BME280;69218;52.132;5.418;2023-12-20T01:48:55;101671.38;;;5.16;100.00
79729;BME280;69218;52.132;5.418;2023-12-20T01:51:22;101657.66;;;5.13;100.00
79729;BME280;69218;52.132;5.418;2023-12-20T01:53:49;101660.19;;;5.14;100.00
79729;BME280;69218;52.132;5.418;2023-12-20T01:56:16;101666.19;;;5.16;100.00
79729;BME280;69218;52.132;5.418;2023-12-20T01:58:46;101665.34;;;5.16;100.00
79729;BME280;69218;52.132;5.418;2023-12-20T02:01:14;101663.66;;;5.15;100.00
79729;BME280;69218;52.132;5.418;2023-12-20T02:03:41;101657.59;;;5.14;100.00
79729;BME280;69218;52.132;5.418;2023-12-20T02:06:09;101656.75;;;5.14;100.00
79729;BME280;69218;52.132;5.418;2023-12-20T02:08:36;101668.06;;;5.13;100.00
79729;BME280;69218;52.132;5.418;2023-12-20T02:11:02;101661.09;;;5.13;100.00
79729;BME280;69218;52.132;5.418;2023-12-20T02:13:30;101662.88;;;5.13;100.00
79729;BME280;69218;52.132;5.418;2023-12-20T02:15:57;101657.59;;;5.14;100.00
79729;BME280;69218;52.132;5.418;2023-12-20T02:18:24;101651.50;;;5.15;100.00
79729;BME280;69218;52.132;5.418;2023-12-20T02:20:50;101659.16;;;5.18;100.00
79729;BME280;69218;52.132;5.418;2023-12-20T02:23:17;101652.97;;;5.21;100.00
79729;BME280;69218;52.132;5.418;2023-12-20T02:25:43;101654.69;;;5.22;100.00
79729;BME280;69218;52.132;5.418;2023-12-20T02:28:10;101653.84;;;5.21;100.00
79729;BME280;69218;52.132;5.418;2023-12-20T02:30:37;101652.94;;;5.22;100.00
79729;BME280;69218;52.132;5.418;2023-12-20T02:33:07;101657.22;;;5.23;100.00
79729;BME280;69218;52.132;5.418;2023-12-20T02:35:34;101651.09;;;5.24;100.00
79729;BME280;69218;52.132;5.418;2023-12-20T02:38:02;101649.34;;;5.25;100.00
79729;BME280;69218;52.132;5.418;2023-12-20T02:40:29;101648.41;;;5.26;100.00
79729;BME280;69218;52.132;5.418;2023-12-20T02:42:55;101644.06;;;5.27;100.00
79729;BME280;69218;52.132;5.418;2023-12-20T02:45:22;101640.63;;;5.26;100.00
79729;BME280;69218;52.132;5.418;2023-12-20T02:47:48;101631.00;;;5.28;100.00
79729;BME280;69218;52.132;5.418;2023-12-20T02:50:15;101632.75;;;5.28;100.00
79729;BME280;69218;52.132;5.418;2023-12-20T02:52:44;101631.88;;;5.29;100.00
79729;BME280;69218;52.132;5.418;2023-12-20T02:55:12;101628.34;;;5.30;100.00
79729;BME280;69218;52.132;5.418;2023-12-20T02:57:39;101629.25;;;5.29;100.00
79729;BME280;69218;52.132;5.418;2023-12-20T03:00:09;101625.94;;;5.25;100.00
79729;BME280;69218;52.132;5.418;2023-12-20T03:02:37;101621.66;;;5.24;100.00
79729;BME280;69218;52.132;5.418;2023-12-20T03:05:04;101621.00;;;5.19;100.00
79729;BME280;69218;52.132;5.418;2023-12-20T03:07:30;101621.75;;;5.22;100.00
79729;BME280;69218;52.132;5.418;2023-12-20T03:09:57;101627.56;;;5.28;100.00
79729;BME280;69218;52.132;5.418;2023-12-20T03:12:43;101618.91;;;5.27;100.00
79729;BME280;69218;52.132;5.418;2023-12-20T03:15:10;101621.59;;;5.26;100.00
79729;BME280;69218;52.132;5.418;2023-12-20T03:17:37;101613.72;;;5.27;100.00
79729;BME280;69218;52.132;5.418;2023-12-20T03:20:04;101616.97;;;5.32;100.00
79729;BME280;69218;52.132;5.418;2023-12-20T03:22:30;101618.72;;;5.32;100.00
79729;BME280;69218;52.132;5.418;2023-12-20T03:24:57;101607.41;;;5.33;100.00
79729;BME280;69218;52.132;5.418;2023-12-20T03:27:23;101605.72;;;5.32;100.00
79729;BME280;69218;52.132;5.418;2023-12-20T03:29:50;101599.47;;;5.36;100.00
79729;BME280;69218;52.132;5.418;2023-12-20T03:32:16;101593.41;;;5.35;100.00
79729;BME280;69218;52.132;5.418;2023-12-20T03:34:43;101601.16;;;5.37;100.00
79729;BME280;69218;52.132;5.418;2023-12-20T03:37:10;101603.59;;;5.40;100.00
79729;BME280;69218;52.132;5.418;2023-12-20T03:39:36;101603.50;;;5.43;100.00
79729;BME280;69218;52.132;5.418;2023-12-20T03:42:03;101604.16;;;5.46;100.00
79729;BME280;69218;52.132;5.418;2023-12-20T03:44:30;101601.41;;;5.49;100.00
79729;BME280;69218;52.132;5.418;2023-12-20T03:46:56;101605.56;;;5.54;100.00
79729;BME280;69218;52.132;5.418;2023-12-20T03:49:23;101614.22;;;5.54;100.00
79729;BME280;69218;52.132;5.418;2023-12-20T03:51:49;101617.66;;;5.55;100.00
79729;BME280;69218;52.132;5.418;2023-12-20T03:54:16;101615.06;;;5.55;100.00
79729;BME280;69218;52.132;5.418;2023-12-20T03:56:42;101609.94;;;5.53;100.00
79729;BME280;69218;52.132;5.418;2023-12-20T03:59:09;101606.41;;;5.54;100.00
79729;BME280;69218;52.132;5.418;2023-12-20T04:01:35;101599.34;;;5.58;100.00
79729;BME280;69218;52.132;5.418;2023-12-20T04:04:03;101597.50;;;5.60;100.00
79729;BME280;69218;52.132;5.418;2023-12-20T04:06:29;101605.28;;;5.60;100.00
79729;BME280;69218;52.132;5.418;2023-12-20T04:08:56;101604.22;;;5.64;100.00
79729;BME280;69218;52.132;5.418;2023-12-20T04:11:23;101603.25;;;5.66;100.00
79729;BME280;69218;52.132;5.418;2023-12-20T04:13:49;101605.50;;;5.74;100.00
79729;BME280;69218;52.132;5.418;2023-12-20T04:16:16;101600.97;;;5.77;100.00
79729;BME280;69218;52.132;5.418;2023-12-20T04:18:42;101586.16;;;5.79;100.00
79729;BME280;69218;52.132;5.418;2023-12-20T04:21:09;101581.91;;;5.77;100.00
79729;BME280;69218;52.132;5.418;2023-12-20T04:23:35;101583.75;;;5.75;100.00
79729;BME280;69218;52.132;5.418;2023-12-20T04:26:02;101583.63;;;5.78;100.00
79729;BME280;69218;52.132;5.418;2023-12-20T04:28:28;101589.44;;;5.83;100.00
79729;BME280;69218;52.132;5.418;2023-12-20T04:30:56;101593.69;;;5.86;100.00
79729;BME280;69218;52.132;5.418;2023-12-20T04:33:23;101594.31;;;5.91;100.00
79729;BME280;69218;52.132;5.418;2023-12-20T04:35:50;101604.59;;;5.94;100.00
79729;BME280;69218;52.132;5.418;2023-12-20T04:38:16;101601.81;;;5.97;100.00
79729;BME280;69218;52.132;5.418;2023-12-20T04:40:43;101606.09;;;5.98;100.00
79729;BME280;69218;52.132;5.418;2023-12-20T04:43:09;101593.81;;;6.01;100.00
79729;BME280;69218;52.132;5.418;2023-12-20T04:45:36;101584.16;;;6.03;100.00
79729;BME280;69218;52.132;5.418;2023-12-20T04:48:03;101585.84;;;6.04;100.00
79729;BME280;69218;52.132;5.418;2023-12-20T04:50:30;101589.22;;;6.07;100.00
79729;BME280;69218;52.132;5.418;2023-12-20T04:52:57;101589.16;;;6.08;100.00
79729;BME280;69218;52.132;5.418;2023-12-20T04:55:23;101581.03;;;6.14;100.00
79729;BME280;69218;52.132;5.418;2023-12-20T04:57:50;101575.00;;;6.14;100.00
79729;BME280;69218;52.132;5.418;2023-12-20T05:00:17;101569.53;;;6.18;100.00
79729;BME280;69218;52.132;5.418;2023-12-20T05:02:43;101578.97;;;6.21;100.00
79729;BME280;69218;52.132;5.418;2023-12-20T05:05:10;101569.31;;;6.23;100.00
79729;BME280;69218;52.132;5.418;2023-12-20T05:07:37;101572.59;;;6.26;100.00
79729;BME280;69218;52.132;5.418;2023-12-20T05:10:04;101582.88;;;6.29;100.00
79729;BME280;69218;52.132;5.418;2023-12-20T05:12:31;101579.34;;;6.30;100.00
79729;BME280;69218;52.132;5.418;2023-12-20T05:14:58;101581.03;;;6.31;100.00
79729;BME280;69218;52.132;5.418;2023-12-20T05:17:24;101579.28;;;6.32;100.00
79729;BME280;69218;52.132;5.418;2023-12-20T05:19:51;101576.66;;;6.32;100.00
79729;BME280;69218;52.132;5.418;2023-12-20T05:22:18;101583.50;;;6.35;100.00
79729;BME280;69218;52.132;5.418;2023-12-20T05:24:46;101577.38;;;6.36;100.00
79729;BME280;69218;52.132;5.418;2023-12-20T05:27:13;101584.94;;;6.40;100.00
79729;BME280;69218;52.132;5.418;2023-12-20T05:29:39;101582.28;;;6.42;100.00
79729;BME280;69218;52.132;5.418;2023-12-20T05:32:06;101586.56;;;6.43;100.00
79729;BME280;69218;52.132;5.418;2023-12-20T05:34:32;101581.34;;;6.43;100.00
79729;BME280;69218;52.132;5.418;2023-12-20T05:36:59;101576.97;;;6.43;100.00
79729;BME280;69218;52.132;5.418;2023-12-20T05:39:26;101586.47;;;6.44;100.00
79729;BME280;69218;52.132;5.418;2023-12-20T05:41:52;101587.22;;;6.46;100.00
79729;BME280;69218;52.132;5.418;2023-12-20T05:44:19;101579.34;;;6.48;100.00
79729;BME280;69218;52.132;5.418;2023-12-20T05:46:45;101588.84;;;6.49;100.00
79729;BME280;69218;52.132;5.418;2023-12-20T05:49:12;101585.31;;;6.50;100.00
79729;BME280;69218;52.132;5.418;2023-12-20T05:51:38;101581.03;;;6.49;100.00
79729;BME280;69218;52.132;5.418;2023-12-20T05:54:05;101584.41;;;6.51;100.00
79729;BME280;69218;52.132;5.418;2023-12-20T05:56:32;101579.03;;;6.54;100.00
79729;BME280;69218;52.132;5.418;2023-12-20T05:58:59;101584.25;;;6.54;100.00
79729;BME280;69218;52.132;5.418;2023-12-20T06:01:25;101579.88;;;6.54;100.00
79729;BME280;69218;52.132;5.418;2023-12-20T06:03:52;101572.97;;;6.53;100.00
79729;BME280;69218;52.132;5.418;2023-12-20T06:06:19;101578.09;;;6.55;100.00
79729;BME280;69218;52.132;5.418;2023-12-20T06:08:45;101572.84;;;6.56;100.00
79729;BME280;69218;52.132;5.418;2023-12-20T06:11:12;101573.59;;;6.58;100.00
79729;BME280;69218;52.132;5.418;2023-12-20T06:13:40;101577.03;;;6.59;100.00
79729;BME280;69218;52.132;5.418;2023-12-20T06:16:06;101572.59;;;6.61;100.00
79729;BME280;69218;52.132;5.418;2023-12-20T06:18:39;101574.34;;;6.60;100.00
79729;BME280;69218;52.132;5.418;2023-12-20T06:21:06;101576.81;;;6.64;100.00
79729;BME280;69218;52.132;5.418;2023-12-20T06:23:34;101573.28;;;6.65;100.00
79729;BME280;69218;52.132;5.418;2023-12-20T06:26:00;101568.91;;;6.65;100.00
79729;BME280;69218;52.132;5.418;2023-12-20T06:28:27;101573.03;;;6.69;100.00
79729;BME280;69218;52.132;5.418;2023-12-20T06:30:53;101567.81;;;6.69;100.00
79729;BME280;69218;52.132;5.418;2023-12-20T06:33:21;101574.75;;;6.70;100.00
79729;BME280;69218;52.132;5.418;2023-12-20T06:35:49;101572.88;;;6.72;100.00
79729;BME280;69218;52.132;5.418;2023-12-20T06:38:17;101562.47;;;6.72;100.00
79729;BME280;69218;52.132;5.418;2023-12-20T06:40:44;101559.03;;;6.72;100.00
79729;BME280;69218;52.132;5.418;2023-12-20T06:43:12;101566.66;;;6.75;100.00
79729;BME280;69218;52.132;5.418;2023-12-20T06:45:57;101563.13;;;6.76;100.00
79729;BME280;69218;52.132;5.418;2023-12-20T06:48:24;101559.63;;;6.77;100.00
79729;BME280;69218;52.132;5.418;2023-12-20T06:50:50;101554.34;;;6.78;100.00
79729;BME280;69218;52.132;5.418;2023-12-20T06:53:17;101545.59;;;6.79;100.00
79729;BME280;69218;52.132;5.418;2023-12-20T06:55:43;101550.81;;;6.79;100.00
79729;BME280;69218;52.132;5.418;2023-12-20T06:58:10;101549.97;;;6.79;100.00
79729;BME280;69218;52.132;5.418;2023-12-20T07:00:36;101557.59;;;6.82;100.00
79729;BME280;69218;52.132;5.418;2023-12-20T07:03:03;101541.88;;;6.83;100.00
79729;BME280;69218;52.132;5.418;2023-12-20T07:05:30;101542.81;;;6.82;100.00
79729;BME280;69218;52.132;5.418;2023-12-20T07:07:56;101547.97;;;6.84;100.00
79729;BME280;69218;52.132;5.418;2023-12-20T07:10:23;101551.31;;;6.86;100.00
79729;BME280;69218;52.132;5.418;2023-12-20T07:12:50;101554.69;;;6.88;100.00
79729;BME280;69218;52.132;5.418;2023-12-20T07:15:17;101552.91;;;6.88;100.00
79729;BME280;69218;52.132;5.418;2023-12-20T07:17:44;101547.63;;;6.90;100.00
79729;BME280;69218;52.132;5.418;2023-12-20T07:20:11;101538.03;;;6.91;100.00
79729;BME280;69218;52.132;5.418;2023-12-20T07:22:38;101540.56;;;6.92;100.00
79729;BME280;69218;52.132;5.418;2023-12-20T07:25:06;101542.34;;;6.92;100.00
79729;BME280;69218;52.132;5.418;2023-12-20T07:27:33;101545.78;;;6.92;100.00
79729;BME280;69218;52.132;5.418;2023-12-20T07:29:59;101541.31;;;6.94;100.00
79729;BME280;69218;52.132;5.418;2023-12-20T07:32:25;101536.88;;;6.96;100.00
79729;BME280;69218;52.132;5.418;2023-12-20T07:34:52;101530.72;;;6.97;100.00
79729;BME280;69218;52.132;5.418;2023-12-20T07:37:20;101533.28;;;6.99;100.00
79729;BME280;69218;52.132;5.418;2023-12-20T07:39:47;101516.72;;;7.00;100.00
79729;BME280;69218;52.132;5.418;2023-12-20T07:42:14;101518.38;;;7.01;100.00
79729;BME280;69218;52.132;5.418;2023-12-20T07:44:40;101530.59;;;7.00;100.00
79729;BME280;69218;52.132;5.418;2023-12-20T07:47:07;101541.84;;;7.01;100.00
79729;BME280;69218;52.132;5.418;2023-12-20T07:49:34;101545.19;;;7.03;100.00
79729;BME280;69218;52.132;5.418;2023-12-20T07:52:01;101549.50;;;7.04;100.00
79729;BME280;69218;52.132;5.418;2023-12-20T07:54:27;101549.44;;;7.05;100.00
79729;BME280;69218;52.132;5.418;2023-12-20T07:56:54;101559.78;;;7.07;100.00
79729;BME280;69218;52.132;5.418;2023-12-20T07:59:20;101557.16;;;7.07;100.00
79729;BME280;69218;52.132;5.418;2023-12-20T08:01:58;101558.00;;;7.07;100.00
79729;BME280;69218;52.132;5.418;2023-12-20T08:04:25;101553.63;;;7.08;100.00
79729;BME280;69218;52.132;5.418;2023-12-20T08:06:54;101562.97;;;7.12;100.00
79729;BME280;69218;52.132;5.418;2023-12-20T08:09:21;101575.09;;;7.13;100.00
79729;BME280;69218;52.132;5.418;2023-12-20T08:11:48;101568.19;;;7.12;100.00
79729;BME280;69218;52.132;5.418;2023-12-20T08:14:15;101575.84;;;7.15;100.00
79729;BME280;69218;52.132;5.418;2023-12-20T08:16:44;101576.69;;;7.15;100.00
79729;BME280;69218;52.132;5.418;2023-12-20T08:19:11;101573.06;;;7.18;100.00
79729;BME280;69218;52.132;5.418;2023-12-20T08:21:38;101566.06;;;7.19;100.00
79729;BME280;69218;52.132;5.418;2023-12-20T08:24:05;101565.19;;;7.20;100.00
79729;BME280;69218;52.132;5.418;2023-12-20T08:26:32;101569.56;;;7.19;100.00
79729;BME280;69218;52.132;5.418;2023-12-20T08:29:20;101559.88;;;7.21;100.00
79729;BME280;69218;52.132;5.418;2023-12-20T08:31:53;101556.34;;;7.22;100.00
79729;BME280;69218;52.132;5.418;2023-12-20T08:34:20;101561.53;;;7.22;100.00
79729;BME280;69218;52.132;5.418;2023-12-20T08:36:47;101558.75;;;7.25;100.00
79729;BME280;69218;52.132;5.418;2023-12-20T08:39:13;101556.09;;;7.27;100.00
79729;BME280;69218;52.132;5.418;2023-12-20T08:41:40;101546.50;;;7.27;100.00
79729;BME280;69218;52.132;5.418;2023-12-20T08:44:07;101545.56;;;7.28;100.00
79729;BME280;69218;52.132;5.418;2023-12-20T08:46:33;101553.41;;;7.28;100.00
79729;BME280;69218;52.132;5.418;2023-12-20T08:49:00;101550.69;;;7.30;100.00
79729;BME280;69218;52.132;5.418;2023-12-20T08:51:27;101555.91;;;7.30;100.00
79729;BME280;69218;52.132;5.418;2023-12-20T08:53:54;101546.31;;;7.30;100.00
79729;BME280;69218;52.132;5.418;2023-12-20T08:56:21;101554.16;;;7.30;100.00
79729;BME280;69218;52.132;5.418;2023-12-20T08:58:47;101554.06;;;7.32;100.00
79729;BME280;69218;52.132;5.418;2023-12-20T09:01:14;101545.47;;;7.30;100.00
79729;BME280;69218;52.132;5.418;2023-12-20T09:03:41;101550.78;;;7.28;100.00
79729;BME280;69218;52.132;5.418;2023-12-20T09:06:08;101558.72;;;7.27;100.00
79729;BME280;69218;52.132;5.418;2023-12-20T09:08:35;101551.72;;;7.27;100.00
79729;BME280;69218;52.132;5.418;2023-12-20T09:11:01;101555.31;;;7.25;100.00
79729;BME280;69218;52.132;5.418;2023-12-20T09:13:28;101559.69;;;7.24;100.00
79729;BME280;69218;52.132;5.418;2023-12-20T09:15:56;101556.16;;;7.25;100.00
79729;BME280;69218;52.132;5.418;2023-12-20T09:18:23;101550.94;;;7.25;100.00
79729;BME280;69218;52.132;5.418;2023-12-20T09:20:49;101542.28;;;7.25;100.00
79729;BME280;69218;52.132;5.418;2023-12-20T09:23:16;101542.28;;;7.25;100.00
79729;BME280;69218;52.132;5.418;2023-12-20T09:25:43;101545.66;;;7.27;100.00
79729;BME280;69218;52.132;5.418;2023-12-20T09:28:10;101548.19;;;7.28;100.00
79729;BME280;69218;52.132;5.418;2023-12-20T09:30:37;101548.09;;;7.30;100.00
79729;BME280;69218;52.132;5.418;2023-12-20T09:33:06;101541.00;;;7.32;100.00
79729;BME280;69218;52.132;5.418;2023-12-20T09:35:34;101545.25;;;7.34;100.00
79729;BME280;69218;52.132;5.418;2023-12-20T09:38:00;101555.50;;;7.37;100.00
79729;BME280;69218;52.132;5.418;2023-12-20T09:40:27;101544.06;;;7.40;100.00
79729;BME280;69218;52.132;5.418;2023-12-20T09:42:58;101549.00;;;7.44;100.00
79729;BME280;69218;52.132;5.418;2023-12-20T09:45:25;101556.59;;;7.49;100.00
79729;BME280;69218;52.132;5.418;2023-12-20T09:47:54;101556.41;;;7.52;100.00
79729;BME280;69218;52.132;5.418;2023-12-20T09:50:21;101557.19;;;7.54;100.00
79729;BME280;69218;52.132;5.418;2023-12-20T09:52:52;101559.63;;;7.57;100.00
79729;BME280;69218;52.132;5.418;2023-12-20T09:55:20;101551.69;;;7.59;100.00
79729;BME280;69218;52.132;5.418;2023-12-20T09:57:48;101554.81;;;7.65;100.00
79729;BME280;69218;52.132;5.418;2023-12-20T10:00:16;101545.13;;;7.67;100.00
79729;BME280;69218;52.132;5.418;2023-12-20T10:02:50;101548.31;;;7.72;100.00
79729;BME280;69218;52.132;5.418;2023-12-20T10:05:30;101557.66;;;7.77;100.00
79729;BME280;69218;52.132;5.418;2023-12-20T10:07:57;101567.00;;;7.81;100.00
79729;BME280;69218;52.132;5.418;2023-12-20T10:10:24;101565.06;;;7.84;100.00
79729;BME280;69218;52.132;5.418;2023-12-20T10:13:09;101564.88;;;7.87;100.00
79729;BME280;69218;52.132;5.418;2023-12-20T10:15:36;101569.00;;;7.91;100.00
79729;BME280;69218;52.132;5.418;2023-12-20T10:18:04;101570.69;;;7.92;100.00
79729;BME280;69218;52.132;5.418;2023-12-20T10:20:31;101575.91;;;7.92;100.00
79729;BME280;69218;52.132;5.418;2023-12-20T10:22:59;101574.97;;;7.93;100.00
79729;BME280;69218;52.132;5.418;2023-12-20T10:25:26;101576.50;;;7.97;100.00
79729;BME280;69218;52.132;5.418;2023-12-20T10:28:13;101572.22;;;7.96;100.00
79729;BME280;69218;52.132;5.418;2023-12-20T10:30:41;101558.13;;;7.99;100.00
79729;BME280;69218;52.132;5.418;2023-12-20T10:33:09;101553.56;;;8.03;100.00
79729;BME280;69218;52.132;5.418;2023-12-20T10:35:38;101556.84;;;8.06;100.00
79729;BME280;69218;52.132;5.418;2023-12-20T10:38:10;101550.50;;;8.10;100.00
79729;BME280;69218;52.132;5.418;2023-12-20T10:40:37;101550.44;;;8.12;100.00
79729;BME280;69218;52.132;5.418;2023-12-20T10:43:05;101545.97;;;8.14;100.00
79729;BME280;69218;52.132;5.418;2023-12-20T10:45:32;101538.13;;;8.14;100.00
79729;BME280;69218;52.132;5.418;2023-12-20T10:47:59;101540.47;;;8.18;100.00
79729;BME280;69218;52.132;5.418;2023-12-20T10:50:28;101543.56;;;8.25;100.00
79729;BME280;69218;52.132;5.418;2023-12-20T10:52:56;101538.25;;;8.26;100.00
79729;BME280;69218;52.132;5.418;2023-12-20T10:55:23;101539.94;;;8.27;100.00
79729;BME280;69218;52.132;5.418;2023-12-20T10:57:51;101529.38;;;8.29;100.00
79729;BME280;69218;52.132;5.418;2023-12-20T11:00:21;101532.56;;;8.34;100.00
79729;BME280;69218;52.132;5.418;2023-12-20T11:02:49;101532.56;;;8.34;100.00
79729;BME280;69218;52.132;5.418;2023-12-20T11:05:28;101529.91;;;8.36;100.00
79729;BME280;69218;52.132;5.418;2023-12-20T11:10:58;101535.41;;;8.45;100.00
79729;BME280;69218;52.132;5.418;2023-12-20T11:13:36;101522.75;;;8.53;100.00
79729;BME280;69218;52.132;5.418;2023-12-20T11:16:04;101519.66;;;8.61;100.00
79729;BME280;69218;52.132;5.418;2023-12-20T11:18:31;101525.38;;;8.68;100.00
79729;BME280;69218;52.132;5.418;2023-12-20T11:21:02;101518.16;;;8.71;100.00
79729;BME280;69218;52.132;5.418;2023-12-20T11:23:32;101512.09;;;8.71;99.71
79729;BME280;69218;52.132;5.418;2023-12-20T11:26:01;101502.03;;;8.65;99.85
79729;BME280;69218;52.132;5.418;2023-12-20T11:28:29;101497.00;;;8.62;100.00
79729;BME280;69218;52.132;5.418;2023-12-20T11:31:00;101495.38;;;8.59;100.00
79729;BME280;69218;52.132;5.418;2023-12-20T11:33:37;101494.84;;;8.68;100.00
79729;BME280;69218;52.132;5.418;2023-12-20T11:36:13;101501.00;;;8.82;100.00
79729;BME280;69218;52.132;5.418;2023-12-20T11:38:54;101499.59;;;8.90;99.62
79729;BME280;69218;52.132;5.418;2023-12-20T11:41:23;101489.50;;;8.98;99.38
79729;BME280;69218;52.132;5.418;2023-12-20T11:43:53;101489.50;;;8.98;99.43
79729;BME280;69218;52.132;5.418;2023-12-20T11:46:20;101486.22;;;8.95;98.65
79729;BME280;69218;52.132;5.418;2023-12-20T11:48:47;101476.69;;;8.94;98.33
79729;BME280;69218;52.132;5.418;2023-12-20T11:51:15;101492.38;;;8.94;96.81
79729;BME280;69218;52.132;5.418;2023-12-20T11:53:41;101476.69;;;8.94;97.46
79729;BME280;69218;52.132;5.418;2023-12-20T11:56:11;101463.63;;;8.94;98.26
79729;BME280;69218;52.132;5.418;2023-12-20T11:58:38;101462.78;;;8.93;97.47
79729;BME280;69218;52.132;5.418;2023-12-20T12:01:06;101467.00;;;8.96;97.13
79729;BME280;69218;52.132;5.418;2023-12-20T12:03:35;101460.00;;;8.96;96.70
79729;BME280;69218;52.132;5.418;2023-12-20T12:06:03;101467.84;;;8.96;96.89
79729;BME280;69218;52.132;5.418;2023-12-20T12:08:31;101474.84;;;8.96;96.55
79729;BME280;69218;52.132;5.418;2023-12-20T12:10:58;101469.69;;;8.94;96.20
79729;BME280;69218;52.132;5.418;2023-12-20T12:13:33;101471.28;;;8.97;96.96
79729;BME280;69218;52.132;5.418;2023-12-20T12:16:00;101473.06;;;8.96;97.58
79729;BME280;69218;52.132;5.418;2023-12-20T12:18:27;101474.84;;;8.96;97.13
79729;BME280;69218;52.132;5.418;2023-12-20T12:21:00;101480.13;;;8.94;96.86
79729;BME280;69218;52.132;5.418;2023-12-20T12:23:27;101478.09;;;8.99;97.59
79729;BME280;69218;52.132;5.418;2023-12-20T12:25:54;101476.19;;;9.01;97.24
79729;BME280;69218;52.132;5.418;2023-12-20T12:28:21;101468.28;;;9.03;96.95
79729;BME280;69218;52.132;5.418;2023-12-20T12:30:58;101463.91;;;9.03;96.15
79729;BME280;69218;52.132;5.418;2023-12-20T12:33:25;101449.97;;;9.03;96.25
79729;BME280;69218;52.132;5.418;2023-12-20T12:35:52;101448.22;;;9.03;96.87
79729;BME280;69218;52.132;5.418;2023-12-20T12:38:24;101447.38;;;9.03;96.83
79729;BME280;69218;52.132;5.418;2023-12-20T12:40:50;101452.66;;;9.01;97.17
79729;BME280;69218;52.132;5.418;2023-12-20T12:43:19;101452.66;;;9.01;97.56
79729;BME280;69218;52.132;5.418;2023-12-20T12:45:46;101442.22;;;9.01;96.92
79729;BME280;69218;52.132;5.418;2023-12-20T12:48:13;101429.25;;;9.00;97.48
79729;BME280;69218;52.132;5.418;2023-12-20T12:50:39;101434.38;;;9.01;98.63
79729;BME280;69218;52.132;5.418;2023-12-20T12:53:06;101432.69;;;9.00;97.88
79729;BME280;69218;52.132;5.418;2023-12-20T12:55:33;101430.19;;;8.99;97.95